Tecumseh, Kansas
Current Conditions -  °F | °C
As of 3:53 AM on Tuesday 21 Oct 2014 (Local Time) from KTOP Reporting Station
Haze Haze  
Wind Chill: 43°   Ceiling: 200
Heat Index: 43°   Visibility: 2mi
Dew Point: 42°   Wind: 0mph
Humidity: 97%   Direction: NA
Pressure: 30.09"   Gusts: NA
Location:  39.05°N, 95.58°W
Report Text: KTOP 210853Z AUTO 00000KT 2SM BR BKN002 06/06 A3009 RMK AO2 SLP187 T00610056 50006 $
Loading
Personal Weather Stations






























Interactive Weather Map
Tropical Storm Tracking
New forecast layout! Learn more

10-Day Weather Forecast

Advertisements
Track Severe Weather on mobile